createdAt,value
2022-12-14T00:01:34.358Z,-6.27
2022-12-14T00:04:00.945Z,-6.35
2022-12-14T00:06:29.905Z,-6.37
2022-12-14T00:08:59.063Z,-6.45
2022-12-14T00:11:26.050Z,-6.38
2022-12-14T00:13:58.224Z,-6.44
2022-12-14T00:16:27.817Z,-6.45
2022-12-14T00:18:57.760Z,-6.51
2022-12-14T00:21:24.428Z,-6.31
2022-12-14T00:23:52.130Z,-6.40
2022-12-14T00:26:24.312Z,-6.53
2022-12-14T00:28:52.462Z,-6.63
2022-12-14T00:31:19.610Z,-6.54
2022-12-14T00:33:46.754Z,-6.59
2022-12-14T00:36:13.718Z,-6.62
2022-12-14T00:38:40.909Z,-6.56
2022-12-14T00:41:08.065Z,-6.56
2022-12-14T00:43:34.798Z,-6.17
2022-12-14T00:46:01.490Z,-6.37
2022-12-14T00:48:28.653Z,-6.53
2022-12-14T00:50:56.082Z,-6.64
2022-12-14T00:53:23.766Z,-6.64
2022-12-14T00:55:50.712Z,-6.66
2022-12-14T00:58:20.194Z,-6.75
2022-12-14T01:00:48.382Z,-6.54
2022-12-14T01:03:15.303Z,-6.62
2022-12-14T01:05:42.074Z,-6.71
2022-12-14T01:08:15.889Z,-6.75
2022-12-14T01:10:42.577Z,-6.79
2022-12-14T01:13:11.138Z,-6.76
2022-12-14T01:15:37.879Z,-6.67
2022-12-14T01:18:04.839Z,-6.72
2022-12-14T01:20:31.435Z,-6.76
2022-12-14T01:22:58.085Z,-6.75
2022-12-14T01:25:24.914Z,-6.75
2022-12-14T01:27:51.694Z,-6.68
2022-12-14T01:30:19.280Z,-6.62
2022-12-14T01:32:46.789Z,-6.66
2022-12-14T01:35:13.604Z,-6.55
2022-12-14T01:37:40.272Z,-6.57
2022-12-14T01:40:07.851Z,-6.45
2022-12-14T01:42:37.955Z,-6.49
2022-12-14T01:45:06.114Z,-6.47
2022-12-14T01:47:42.403Z,-6.43
2022-12-14T01:50:27.247Z,-6.53
2022-12-14T01:52:56.961Z,-6.54
2022-12-14T01:55:34.311Z,-6.34
2022-12-14T01:58:20.448Z,-6.41
2022-12-14T02:00:47.649Z,-6.42
2022-12-14T02:03:38.353Z,-6.37
2022-12-14T02:06:06.148Z,-6.34
2022-12-14T02:08:33.103Z,-6.25
2022-12-14T02:11:00.031Z,-6.11
2022-12-14T02:13:29.686Z,-6.00
2022-12-14T02:15:56.646Z,-5.85
2022-12-14T02:18:27.693Z,-6.00
2022-12-14T02:21:12.278Z,-6.04
2022-12-14T02:23:45.106Z,-5.99
2022-12-14T02:26:44.216Z,-5.95
2022-12-14T02:29:19.758Z,-6.15
2022-12-14T02:31:46.259Z,-6.02
2022-12-14T02:34:35.156Z,-6.17
2022-12-14T02:37:17.512Z,-6.11
2022-12-14T02:40:01.367Z,-6.19
2022-12-14T02:42:36.993Z,-6.27
2022-12-14T02:45:16.977Z,-6.41
2022-12-14T02:47:54.384Z,-6.56
2022-12-14T02:50:29.978Z,-6.53
2022-12-14T02:53:08.898Z,-6.51
2022-12-14T02:55:37.708Z,-6.31
2022-12-14T02:58:13.650Z,-6.44
2022-12-14T03:00:40.816Z,-6.12
2022-12-14T03:03:07.508Z,-6.10
2022-12-14T03:05:35.009Z,-6.16
2022-12-14T03:08:08.776Z,-5.90
2022-12-14T03:10:41.539Z,-5.89
2022-12-14T03:13:49.190Z,-5.87
2022-12-14T03:16:16.001Z,-6.07
2022-12-14T03:18:50.221Z,-6.10
2022-12-14T03:21:21.021Z,-6.23
2022-12-14T03:23:49.107Z,-6.12
2022-12-14T03:26:38.386Z,-6.21
2022-12-14T03:29:11.453Z,-6.21
2022-12-14T03:31:42.147Z,-6.21
2022-12-14T03:34:13.024Z,-6.02
2022-12-14T03:36:59.216Z,-5.93
2022-12-14T03:39:29.743Z,-5.96
2022-12-14T03:42:05.323Z,-6.01
2022-12-14T03:44:33.919Z,-5.98
2022-12-14T03:47:19.388Z,-6.07
2022-12-14T03:50:30.823Z,-6.21
2022-12-14T03:53:00.140Z,-6.20
2022-12-14T03:55:44.760Z,-6.24
2022-12-14T03:58:57.003Z,-6.30
2022-12-14T04:01:44.569Z,-6.37
2022-12-14T04:04:35.752Z,-6.39
2022-12-14T04:07:23.379Z,-6.30
2022-12-14T04:09:59.410Z,-6.08
2022-12-14T04:12:54.381Z,-6.14
2022-12-14T04:15:43.884Z,-6.29
2022-12-14T04:18:34.891Z,-6.34
2022-12-14T04:21:07.741Z,-6.44
2022-12-14T04:23:57.053Z,-5.95
2022-12-14T04:26:29.313Z,-6.02
2022-12-14T04:29:18.100Z,-6.15
2022-12-14T04:31:49.267Z,-6.32
2022-12-14T04:34:17.296Z,-5.85
2022-12-14T04:36:50.181Z,-5.95
2022-12-14T04:39:22.474Z,-5.95
2022-12-14T04:41:52.402Z,-5.77
2022-12-14T04:44:26.367Z,-6.03
2022-12-14T04:46:53.710Z,-6.15
2022-12-14T04:49:24.333Z,-6.19
2022-12-14T04:52:14.600Z,-6.26
2022-12-14T04:54:55.193Z,-6.21
2022-12-14T04:57:36.846Z,-6.23
2022-12-14T05:00:05.601Z,-6.30
2022-12-14T05:03:00.281Z,-6.38
2022-12-14T05:05:36.951Z,-6.40
2022-12-14T05:08:12.443Z,-6.36
2022-12-14T05:10:46.051Z,-6.34
2022-12-14T05:13:30.941Z,-6.40
2022-12-14T05:15:58.519Z,-6.50
2022-12-14T05:18:25.629Z,-6.46
2022-12-14T05:20:52.205Z,-6.61
2022-12-14T05:23:18.892Z,-6.72
2022-12-14T05:25:45.455Z,-6.69
2022-12-14T05:28:15.979Z,-6.80
2022-12-14T05:30:42.706Z,-6.62
2022-12-14T05:33:19.601Z,-6.80
2022-12-14T05:35:46.625Z,-7.00
2022-12-14T05:38:13.243Z,-7.13
2022-12-14T05:40:42.481Z,-7.22
2022-12-14T05:43:12.179Z,-7.30
2022-12-14T05:45:38.862Z,-7.33
2022-12-14T05:48:05.749Z,-7.31
2022-12-14T05:50:32.432Z,-7.31
2022-12-14T05:52:59.091Z,-7.36
2022-12-14T05:55:25.763Z,-7.46
2022-12-14T05:57:52.436Z,-7.51
2022-12-14T06:00:19.135Z,-7.64
2022-12-14T06:02:45.893Z,-7.71
2022-12-14T06:05:12.545Z,-7.77
2022-12-14T06:07:39.661Z,-7.85
2022-12-14T06:10:06.702Z,-7.95
2022-12-14T06:12:33.284Z,-8.05
2022-12-14T06:14:59.914Z,-8.04
2022-12-14T06:17:26.491Z,-7.98
2022-12-14T06:19:53.119Z,-7.95
2022-12-14T06:22:20.794Z,-7.79
2022-12-14T06:24:47.376Z,-7.76
2022-12-14T06:27:13.969Z,-7.80
2022-12-14T06:29:40.639Z,-7.77
2022-12-14T06:32:07.239Z,-7.62
2022-12-14T06:34:38.460Z,-7.71
2022-12-14T06:37:06.252Z,-7.69
2022-12-14T06:39:32.862Z,-7.68
2022-12-14T06:41:59.473Z,-7.44
2022-12-14T06:44:26.070Z,-7.42
2022-12-14T06:46:52.745Z,-7.55
2022-12-14T06:49:19.465Z,-7.54
2022-12-14T06:51:46.020Z,-7.66
2022-12-14T06:54:13.717Z,-7.76
2022-12-14T06:56:41.409Z,-7.76
2022-12-14T06:59:08.812Z,-7.75
2022-12-14T07:01:36.924Z,-7.82
2022-12-14T07:04:04.328Z,-7.80
2022-12-14T07:06:39.436Z,-7.81
2022-12-14T07:09:07.549Z,-7.70
2022-12-14T07:11:34.219Z,-7.77
2022-12-14T07:14:03.144Z,-7.76
2022-12-14T07:16:29.684Z,-7.79
2022-12-14T07:18:56.606Z,-7.78
2022-12-14T07:21:23.939Z,-7.70
2022-12-14T07:23:52.462Z,-7.65
2022-12-14T07:26:27.482Z,-7.60
2022-12-14T07:28:54.753Z,-7.60
2022-12-14T07:31:23.911Z,-7.49
2022-12-14T07:33:55.137Z,-7.62
2022-12-14T07:36:22.911Z,-7.48
2022-12-14T07:38:50.761Z,-7.53
2022-12-14T07:41:23.515Z,-7.58
2022-12-14T07:43:52.135Z,-7.59
2022-12-14T07:46:24.259Z,-7.61
2022-12-14T07:48:53.347Z,-7.56
2022-12-14T07:51:22.847Z,-7.53
2022-12-14T07:53:50.696Z,-7.45
2022-12-14T07:56:23.104Z,-7.40
2022-12-14T07:58:49.840Z,-7.22
2022-12-14T08:01:25.314Z,-7.23
2022-12-14T08:03:54.363Z,-7.25
2022-12-14T08:06:23.389Z,-7.28
2022-12-14T08:08:50.228Z,-7.28
2022-12-14T08:11:17.042Z,-7.04
2022-12-14T08:13:43.878Z,-7.07
2022-12-14T08:16:15.845Z,-7.09
2022-12-14T08:18:43.468Z,-7.13
2022-12-14T08:21:12.440Z,-7.17
2022-12-14T08:23:39.147Z,-7.18
2022-12-14T08:26:07.386Z,-7.20
2022-12-14T08:28:35.220Z,-7.21
2022-12-14T08:31:10.911Z,-7.21
2022-12-14T08:33:38.627Z,-7.24
2022-12-14T08:36:08.048Z,-7.21
2022-12-14T08:38:34.814Z,-7.20
2022-12-14T08:41:05.694Z,-7.18
2022-12-14T08:43:32.975Z,-7.20
2022-12-14T08:45:59.938Z,-7.19
2022-12-14T08:48:26.627Z,-7.20
2022-12-14T08:50:53.573Z,-7.26
2022-12-14T08:53:20.419Z,-7.29
2022-12-14T08:55:47.041Z,-7.24
2022-12-14T08:58:13.997Z,-7.25
2022-12-14T09:00:40.609Z,-7.26
2022-12-14T09:03:07.621Z,-7.27
2022-12-14T09:05:35.062Z,-7.28
2022-12-14T09:08:01.805Z,-7.34
2022-12-14T09:10:28.433Z,-7.28
2022-12-14T09:12:55.071Z,-7.30
2022-12-14T09:15:21.947Z,-7.35
2022-12-14T09:17:49.857Z,-7.35
2022-12-14T09:20:16.708Z,-7.28
2022-12-14T09:22:43.473Z,-7.32
2022-12-14T09:25:10.125Z,-7.33
2022-12-14T09:27:36.800Z,-7.41
2022-12-14T09:30:04.232Z,-7.40
2022-12-14T09:32:31.068Z,-7.42
2022-12-14T09:34:59.811Z,-7.45
2022-12-14T09:37:26.453Z,-7.41
2022-12-14T09:39:53.181Z,-7.51
2022-12-14T09:42:38.562Z,-7.53
2022-12-14T09:45:17.327Z,-7.56
2022-12-14T09:47:49.740Z,-7.52
2022-12-14T09:50:19.337Z,-7.57
2022-12-14T09:52:53.321Z,-7.53
2022-12-14T09:55:24.427Z,-7.51
2022-12-14T09:57:55.723Z,-7.50
2022-12-14T10:00:22.740Z,-7.49
2022-12-14T10:03:08.810Z,-7.47
2022-12-14T10:06:00.088Z,-7.43
2022-12-14T10:08:58.976Z,-7.37
2022-12-14T10:11:40.759Z,-7.35
2022-12-14T10:14:52.282Z,-7.35
2022-12-14T10:18:05.657Z,-7.20
2022-12-14T10:20:34.960Z,-7.07
2022-12-14T10:23:02.373Z,-6.97
2022-12-14T10:25:31.667Z,-6.75
2022-12-14T10:28:12.786Z,-6.65
2022-12-14T10:30:41.960Z,-6.34
2022-12-14T10:33:14.806Z,-6.11
2022-12-14T10:35:51.152Z,-6.00
2022-12-14T10:38:23.715Z,-5.85
2022-12-14T10:40:52.100Z,-5.77
2022-12-14T10:43:44.146Z,-5.90
2022-12-14T10:46:28.987Z,-5.67
2022-12-14T10:49:09.022Z,-5.62
2022-12-14T10:51:38.756Z,-5.54
2022-12-14T10:54:17.491Z,-5.55
2022-12-14T10:56:49.853Z,-5.35
2022-12-14T10:59:25.823Z,-5.43
2022-12-14T11:02:18.632Z,-5.45
2022-12-14T11:04:51.495Z,-5.49
2022-12-14T11:07:21.841Z,-5.35
2022-12-14T11:09:48.982Z,-5.33
2022-12-14T11:12:24.830Z,-5.38
2022-12-14T11:15:01.471Z,-5.16
2022-12-14T11:17:36.563Z,-5.17
2022-12-14T11:20:09.523Z,-5.19
2022-12-14T11:22:50.840Z,-5.12
2022-12-14T11:25:37.705Z,-4.99
2022-12-14T11:28:16.772Z,-5.25
2022-12-14T11:30:55.772Z,-5.13
2022-12-14T11:33:22.846Z,-5.16
2022-12-14T11:35:52.690Z,-5.03
2022-12-14T11:38:19.938Z,-4.85
2022-12-14T11:40:47.108Z,-4.94
2022-12-14T11:43:24.431Z,-5.02
2022-12-14T11:45:51.646Z,-4.91
2022-12-14T11:48:24.239Z,-5.04
2022-12-14T11:50:53.111Z,-4.85
2022-12-14T11:53:20.948Z,-4.85
2022-12-14T11:55:52.576Z,-4.90
2022-12-14T11:58:22.579Z,-4.78
2022-12-14T12:00:59.572Z,-4.78
2022-12-14T12:03:32.604Z,-4.68
2022-12-14T12:06:06.232Z,-4.59
2022-12-14T12:08:35.683Z,-4.62
2022-12-14T12:11:15.400Z,-4.55
2022-12-14T12:13:45.034Z,-4.65
2022-12-14T12:16:20.301Z,-4.68
2022-12-14T12:18:54.937Z,-4.77
2022-12-14T12:21:25.434Z,-4.55
2022-12-14T12:24:17.507Z,-4.60
2022-12-14T12:26:55.911Z,-4.64
2022-12-14T12:29:32.156Z,-4.78
2022-12-14T12:32:17.258Z,-4.90
2022-12-14T12:34:57.086Z,-4.82
2022-12-14T12:37:36.831Z,-4.47
2022-12-14T12:40:24.535Z,-4.44
2022-12-14T12:43:01.948Z,-4.52
2022-12-14T12:45:34.991Z,-4.66
2022-12-14T12:48:25.520Z,-4.85
2022-12-14T12:50:55.901Z,-4.94
2022-12-14T12:53:30.216Z,-4.98
2022-12-14T12:56:16.979Z,-4.94
2022-12-14T12:58:50.663Z,-4.98
2022-12-14T13:01:36.109Z,-4.99
2022-12-14T13:04:10.243Z,-5.12
2022-12-14T13:06:50.583Z,-5.15
2022-12-14T13:09:35.298Z,-5.22
2022-12-14T13:12:02.980Z,-5.25
2022-12-14T13:14:35.126Z,-5.35
2022-12-14T13:17:04.547Z,-5.34
2022-12-14T13:19:54.661Z,-5.37
2022-12-14T13:22:30.180Z,-5.37
2022-12-14T13:25:00.229Z,-5.36
2022-12-14T13:27:42.436Z,-5.35
2022-12-14T13:30:27.172Z,-5.33
2022-12-14T13:33:31.336Z,-5.27
2022-12-14T13:36:26.137Z,-5.33
2022-12-14T13:39:18.142Z,-5.25
2022-12-14T13:42:09.339Z,-5.18
2022-12-14T13:45:01.374Z,-5.24
2022-12-14T13:47:53.965Z,-5.23
2022-12-14T13:50:54.217Z,-5.30
2022-12-14T13:53:34.696Z,-5.33
2022-12-14T13:56:02.277Z,-5.26
2022-12-14T13:58:49.393Z,-5.32
2022-12-14T14:01:48.209Z,-5.36
2022-12-14T14:04:32.365Z,-5.41
2022-12-14T14:07:25.243Z,-5.48
2022-12-14T14:09:54.954Z,-5.58
2022-12-14T14:12:24.207Z,-5.43
2022-12-14T14:14:52.623Z,-5.60
2022-12-14T14:17:30.012Z,-5.66
2022-12-14T14:19:57.823Z,-5.66
2022-12-14T14:22:27.463Z,-5.51
2022-12-14T14:24:58.778Z,-5.39
2022-12-14T14:27:44.974Z,-5.60
2022-12-14T14:30:29.994Z,-5.65
2022-12-14T14:33:20.047Z,-5.47
2022-12-14T14:35:44.609Z,-5.61
2022-12-14T14:38:25.474Z,-5.61
2022-12-14T14:41:15.991Z,-5.61
2022-12-14T14:43:49.878Z,-5.81
2022-12-14T14:46:22.171Z,-5.97
2022-12-14T14:48:50.589Z,-6.09
2022-12-14T14:51:20.602Z,-6.21
2022-12-14T14:53:50.254Z,-6.26
2022-12-14T14:56:29.355Z,-6.23
2022-12-14T14:59:14.771Z,-6.23
2022-12-14T15:01:48.399Z,-6.21
2022-12-14T15:04:23.489Z,-6.20
2022-12-14T15:06:57.409Z,-6.27
2022-12-14T15:09:33.992Z,-6.36
2022-12-14T15:12:06.905Z,-6.39
2022-12-14T15:14:46.618Z,-6.48
2022-12-14T15:17:18.197Z,-6.59
2022-12-14T15:19:49.546Z,-6.61
2022-12-14T15:22:19.547Z,-6.67
2022-12-14T15:24:48.862Z,-6.67
2022-12-14T15:27:28.754Z,-6.73
2022-12-14T15:30:05.817Z,-6.72
2022-12-14T15:32:32.883Z,-6.74
2022-12-14T15:35:06.490Z,-6.75
2022-12-14T15:37:56.453Z,-6.75
2022-12-14T15:40:28.051Z,-6.85
2022-12-14T15:43:01.970Z,-6.92
2022-12-14T15:45:34.697Z,-6.97
2022-12-14T15:48:31.064Z,-7.00
2022-12-14T15:51:00.351Z,-7.04
2022-12-14T15:53:31.883Z,-6.97
2022-12-14T15:56:11.786Z,-6.94
2022-12-14T15:58:40.831Z,-6.95
2022-12-14T16:01:14.115Z,-7.01
2022-12-14T16:03:43.799Z,-7.07
2022-12-14T16:06:11.360Z,-7.07
2022-12-14T16:08:44.652Z,-7.01
2022-12-14T16:11:19.385Z,-7.02
2022-12-14T16:13:46.345Z,-6.86
2022-12-14T16:16:13.690Z,-6.95
2022-12-14T16:18:50.619Z,-6.90
2022-12-14T16:21:30.289Z,-6.94
2022-12-14T16:23:58.030Z,-6.98
2022-12-14T16:26:37.632Z,-7.00
2022-12-14T16:29:23.089Z,-6.94
2022-12-14T16:31:49.990Z,-6.92
2022-12-14T16:34:20.604Z,-7.01
2022-12-14T16:37:14.554Z,-7.06
2022-12-14T16:39:44.793Z,-7.15
2022-12-14T16:42:25.557Z,-7.19
2022-12-14T16:44:54.079Z,-7.20
2022-12-14T16:47:20.634Z,-7.29
2022-12-14T16:49:51.694Z,-7.35
2022-12-14T16:52:23.873Z,-7.38
2022-12-14T16:55:09.348Z,-7.41
2022-12-14T16:57:39.615Z,-7.44
2022-12-14T17:00:07.451Z,-7.48
2022-12-14T17:02:34.600Z,-7.42
2022-12-14T17:05:05.662Z,-7.37
2022-12-14T17:07:33.520Z,-7.39
2022-12-14T17:10:00.321Z,-7.41
2022-12-14T17:12:27.214Z,-7.34
2022-12-14T17:14:54.076Z,-7.24
2022-12-14T17:17:34.182Z,-7.22
2022-12-14T17:20:02.165Z,-7.13
2022-12-14T17:22:30.698Z,-7.09
2022-12-14T17:24:59.236Z,-7.18
2022-12-14T17:27:26.810Z,-7.19
2022-12-14T17:29:54.683Z,-7.13
2022-12-14T17:32:22.465Z,-7.06
2022-12-14T17:34:49.212Z,-7.15
2022-12-14T17:37:20.666Z,-7.09
2022-12-14T17:39:47.483Z,-7.19
2022-12-14T17:42:17.195Z,-7.17
2022-12-14T17:44:54.362Z,-7.18
2022-12-14T17:47:22.596Z,-7.23
2022-12-14T17:49:49.377Z,-7.23
2022-12-14T17:52:24.165Z,-7.15
2022-12-14T17:54:50.785Z,-7.18
2022-12-14T17:57:22.622Z,-7.03
2022-12-14T17:59:49.857Z,-6.95
2022-12-14T18:02:28.855Z,-6.98
2022-12-14T18:04:55.890Z,-7.05
2022-12-14T18:07:22.578Z,-7.11
2022-12-14T18:09:50.591Z,-7.11
2022-12-14T18:12:25.118Z,-7.14
2022-12-14T18:14:52.322Z,-7.23
2022-12-14T18:17:19.159Z,-7.21
2022-12-14T18:19:47.896Z,-7.26
2022-12-14T18:22:16.722Z,-7.28
2022-12-14T18:24:43.358Z,-7.35
2022-12-14T18:27:13.725Z,-7.23
2022-12-14T18:29:40.622Z,-7.32
2022-12-14T18:32:11.259Z,-7.35
2022-12-14T18:34:37.955Z,-7.20
2022-12-14T18:37:04.640Z,-7.27
2022-12-14T18:39:31.265Z,-7.22
2022-12-14T18:41:57.847Z,-7.22
2022-12-14T18:44:24.739Z,-7.25
2022-12-14T18:46:51.383Z,-7.30
2022-12-14T18:49:17.951Z,-7.28
2022-12-14T18:51:44.611Z,-7.09
2022-12-14T18:54:11.550Z,-7.21
2022-12-14T18:56:40.974Z,-7.11
2022-12-14T18:59:07.695Z,-7.22
2022-12-14T19:01:34.482Z,-7.09
2022-12-14T19:04:01.369Z,-7.17
2022-12-14T19:06:44.027Z,-7.15
2022-12-14T19:09:12.732Z,-7.37
2022-12-14T19:11:41.716Z,-7.50
2022-12-14T19:14:08.519Z,-7.66
2022-12-14T19:16:35.272Z,-7.79
2022-12-14T19:19:01.941Z,-7.83
2022-12-14T19:21:29.659Z,-7.93
2022-12-14T19:23:56.699Z,-7.71
2022-12-14T19:26:23.347Z,-7.69
2022-12-14T19:28:50.067Z,-7.63
2022-12-14T19:31:16.955Z,-7.70
2022-12-14T19:33:43.654Z,-7.62
2022-12-14T19:36:10.846Z,-7.65
2022-12-14T19:38:37.910Z,-7.80
2022-12-14T19:41:07.625Z,-7.85
2022-12-14T19:43:35.243Z,-7.94
2022-12-14T19:46:10.106Z,-7.92
2022-12-14T19:48:38.074Z,-7.51
2022-12-14T19:51:06.713Z,-7.41
2022-12-14T19:53:34.876Z,-7.52
2022-12-14T19:56:01.721Z,-7.52
2022-12-14T19:58:29.121Z,-7.48
2022-12-14T20:00:56.067Z,-7.58
2022-12-14T20:03:22.832Z,-7.40
2022-12-14T20:05:55.228Z,-7.24
2022-12-14T20:08:22.535Z,-7.08
2022-12-14T20:10:49.309Z,-7.11
2022-12-14T20:13:16.172Z,-7.18
2022-12-14T20:15:53.704Z,-7.21
2022-12-14T20:18:21.797Z,-7.03
2022-12-14T20:20:49.427Z,-7.00
2022-12-14T20:23:17.634Z,-7.02
2022-12-14T20:25:44.782Z,-7.04
2022-12-14T20:28:11.399Z,-7.03
2022-12-14T20:30:45.742Z,-7.02
2022-12-14T20:33:12.761Z,-7.14
2022-12-14T20:35:39.471Z,-7.29
2022-12-14T20:38:06.137Z,-7.04
2022-12-14T20:40:37.999Z,-7.23
2022-12-14T20:43:06.507Z,-7.09
2022-12-14T20:45:40.531Z,-7.10
2022-12-14T20:48:07.960Z,-7.03
2022-12-14T20:50:38.614Z,-7.06
2022-12-14T20:53:05.841Z,-7.14
2022-12-14T20:55:34.049Z,-7.18
2022-12-14T20:58:01.420Z,-7.26
2022-12-14T21:00:28.458Z,-7.18
2022-12-14T21:02:55.233Z,-7.30
2022-12-14T21:05:21.997Z,-7.38
2022-12-14T21:07:48.803Z,-7.39
2022-12-14T21:10:15.456Z,-7.45
2022-12-14T21:12:42.041Z,-7.51
2022-12-14T21:15:09.022Z,-7.50
2022-12-14T21:17:35.629Z,-7.68
2022-12-14T21:20:02.309Z,-7.52
2022-12-14T21:22:30.455Z,-7.63
2022-12-14T21:25:06.031Z,-7.77
2022-12-14T21:27:34.844Z,-7.78
2022-12-14T21:30:01.756Z,-7.76
2022-12-14T21:32:28.454Z,-7.81
2022-12-14T21:34:55.052Z,-7.65
2022-12-14T21:37:22.623Z,-7.51
2022-12-14T21:39:54.995Z,-7.59
2022-12-14T21:42:23.845Z,-7.57
2022-12-14T21:44:51.893Z,-7.52
2022-12-14T21:47:20.089Z,-7.29
2022-12-14T21:49:47.499Z,-7.22
2022-12-14T21:52:18.157Z,-7.10
2022-12-14T21:54:44.997Z,-7.25
2022-12-14T21:57:35.551Z,-7.34
2022-12-14T22:00:02.693Z,-7.12
2022-12-14T22:02:39.182Z,-6.86
2022-12-14T22:05:06.527Z,-7.07
2022-12-14T22:07:34.021Z,-7.04
2022-12-14T22:10:00.758Z,-7.11
2022-12-14T22:12:27.615Z,-6.87
2022-12-14T22:14:54.248Z,-7.02
2022-12-14T22:17:20.881Z,-7.23
2022-12-14T22:19:48.990Z,-7.17
2022-12-14T22:22:16.320Z,-7.25
2022-12-14T22:24:43.481Z,-7.13
2022-12-14T22:27:11.837Z,-7.17
2022-12-14T22:29:38.460Z,-7.26
2022-12-14T22:32:06.061Z,-7.22
2022-12-14T22:34:32.710Z,-7.03
2022-12-14T22:36:59.426Z,-7.18
2022-12-14T22:39:25.996Z,-7.30
2022-12-14T22:41:52.601Z,-7.06
2022-12-14T22:44:19.190Z,-7.11
2022-12-14T22:46:46.897Z,-7.22
2022-12-14T22:49:16.805Z,-7.29
2022-12-14T22:51:43.431Z,-7.10
2022-12-14T22:54:21.409Z,-7.10
2022-12-14T22:57:01.167Z,-7.10
2022-12-14T22:59:37.559Z,-7.08
2022-12-14T23:02:05.071Z,-7.02
2022-12-14T23:04:31.892Z,-7.00
2022-12-14T23:06:58.499Z,-7.12
2022-12-14T23:09:43.370Z,-7.04
2022-12-14T23:12:28.507Z,-7.17
2022-12-14T23:15:13.761Z,-7.08
2022-12-14T23:17:58.943Z,-7.19
2022-12-14T23:20:44.221Z,-7.31
2022-12-14T23:23:29.768Z,-7.15
2022-12-14T23:26:20.149Z,-7.14
2022-12-14T23:29:05.495Z,-7.15
2022-12-14T23:31:50.771Z,-7.21
2022-12-14T23:34:35.732Z,-7.27
2022-12-14T23:37:20.979Z,-7.12
2022-12-14T23:40:06.723Z,-7.08
2022-12-14T23:42:52.058Z,-6.94
2022-12-14T23:45:37.417Z,-7.01
2022-12-14T23:48:22.615Z,-7.09
2022-12-14T23:51:07.922Z,-7.10
2022-12-14T23:53:53.226Z,-7.05
2022-12-14T23:56:38.495Z,-7.08
2022-12-14T23:59:27.972Z,-7.10
